Terminal Aerodrome Forecast
Issued by NWS

Home | Current Version | Previous Version | Text Only | Print | Product List | Glossary On
Versions: 1 2 3 4 5 6 7 8 9 10 11
222
FTUS44 KBMX 082352
TAFTOI
TAF
KTOI 082352Z 0900/0924 30011G17KT P6SM BKN100
     FM090100 28008G14KT P6SM BKN050
     FM091500 29014G24KT P6SM BKN050=

USA.gov is the U.S. government's official web portal to all federal, state and local government web resources and services.